LPFRLPPR

Guest
Details From LPFR - Faro
To LPPR - Porto
Flight Number -
Tags decoded
Created
Modified
Stats Distance 256 nm / 475 km
Max Altitude 0 ft / 0 m
Waypoints 3
Social Downloads 4
Likes 0
Share VATSIM

Download

Looking for another format? Having issues loading an existing format? Contact us
Advertisement - Login to hide

Notes

Requested: LPFR SOTEX ABLEG LPPR

Route

LPFR SOTEX LPPR

ID Type Via Altitude Latitude Longitude Leg Dist Tot Dist Heading (true) Name
O LPFR APT - 0 ft / 0 m 37.01534˚ -7.97233˚ - 0 nm - Faro
SOTEX FIX - 0 ft / 0 m 38.29278˚ -8.22000˚ 77 nm 77 nm 351° / 351° -
O LPPR APT - 0 ft / 0 m 41.24793˚ -8.68122˚ 178 nm 256 nm 353° / 353° Porto

Altitude Profile

Advertisement - Login to hide

Weather


0- 5 10 15 20 25 30 35+ Temperature / ° C

Clouds and Precipitation
Forecast for 2018-05-25 12:00 UTC. Updated 26 minutes ago

Ground ~20,000 ft ~40,000 ft Winds

LPFR

Details ICAO LPFR (FAO)
Name Faro
Region Portugal
Timezone Europe/Lisbon (UTC+1.0)
Stats Elevation 24 ft / 7 m (AMSL)
Location 37.015336° -7.972327°
Runways 1
Magnetic Variation 1.883° W

METAR

LPFR 250930Z 12005KT 100V160 9999 FEW008 FEW022TCU 19/16 Q1013

Decode

TAF

TAF LPFR 250500Z 2506/2606 VRB03KT 9999 FEW015 TEMPO 2506/2518 8000 SHRA SCT008 SCT018 FEW025CB BECMG 2508/2510 19007KT BECMG 2512/2514 22010KT PROB30 TEMPO 2512/2518 5000 TSRA SCT025CB BECMG 2522/2524 VRB03KT FEW008 PROB30 TEMPO 2600/2606 BKN005

Decode

Departure Runways

ID Width Length Bearing (true) Bearing (mag) Surface Threshold Offset Overrun Length
10 148 ft / 45 m 8,148 ft / 2,484 m 100.08° 101.96° Asphalt 148 ft / 45 m 0 ft / 0 m
28 148 ft / 45 m 8,148 ft / 2,484 m 280.10° 281.98° Asphalt 148 ft / 45 m 0 ft / 0 m

LPPR

Details ICAO LPPR (OPO)
Name Porto
Region Portugal
Timezone Europe/Lisbon (UTC+1.0)
Stats Elevation 228 ft / 69 m (AMSL)
Location 41.247932° -8.681221°
Runways 1
Magnetic Variation 2.282° W

METAR

LPPR 250930Z 21005KT 180V260 4000 -RA BR BKN005 OVC009 15/15 Q1013

Decode

TAF

TAF LPPR 250500Z 2506/2606 18007KT 8000 FEW015 BKN030 TEMPO 2506/2518 5000 SHRA SCT008 SCT015 FEW025CB PROB30 TEMPO 2506/2508 3000 BR BKN004 BECMG 2510/2512 23008KT PROB30 2512/2518 32008KT BECMG 2518/2520 VRB03KT 9999 FEW025

Decode

Destination Runways

ID Width Length Bearing (true) Bearing (mag) Surface Threshold Offset Overrun Length
17 148 ft / 45 m 11,451 ft / 3,490 m 168.88° 171.16° Asphalt 984 ft / 300 m 220 ft / 67 m
35 148 ft / 45 m 11,451 ft / 3,490 m 348.89° 351.17° Asphalt 492 ft / 150 m 370 ft / 113 m

Approach Navaids

Runway Type Ident Frequency Range Bearing (true) Bearing (mag) Slope Elevation
17 Localiser PR 109.90 MHz 18 nm / 33 km 168.87° 171.15° - 228 ft / 69 m (AMSL)
17 Glidescope PR 109.90 MHz 10 nm / 19 km 168.88° 171.17° 2.72° 228 ft / 69 m (AMSL)
17 DME PR 109.90 MHz 18 nm / 33 km - - - 228 ft / 69 m (AMSL)

Popular Alternatives